sensor_id;sensor_type;location;lat;lon;timestamp;P1;durP1;ratioP1;P2;durP2;ratioP2
24030;SDS011;12240;51.142;22.486;2023-05-10T00:01:22;29.17;;;6.63;;
24030;SDS011;12240;51.142;22.486;2023-05-10T00:03:51;27.35;;;5.70;;
24030;SDS011;12240;51.142;22.486;2023-05-10T00:06:19;27.38;;;5.80;;
24030;SDS011;12240;51.142;22.486;2023-05-10T00:08:47;32.40;;;6.88;;
24030;SDS011;12240;51.142;22.486;2023-05-10T00:11:15;30.85;;;6.60;;
24030;SDS011;12240;51.142;22.486;2023-05-10T00:13:43;37.90;;;7.45;;
24030;SDS011;12240;51.142;22.486;2023-05-10T00:16:12;40.20;;;8.23;;
24030;SDS011;12240;51.142;22.486;2023-05-10T00:18:40;29.50;;;6.72;;
24030;SDS011;12240;51.142;22.486;2023-05-10T00:21:08;44.78;;;8.65;;
24030;SDS011;12240;51.142;22.486;2023-05-10T00:23:36;29.27;;;6.03;;
24030;SDS011;12240;51.142;22.486;2023-05-10T00:26:05;38.75;;;7.38;;
24030;SDS011;12240;51.142;22.486;2023-05-10T00:28:32;28.98;;;5.97;;
24030;SDS011;12240;51.142;22.486;2023-05-10T00:31:02;39.90;;;7.65;;
24030;SDS011;12240;51.142;22.486;2023-05-10T00:33:30;34.08;;;6.65;;
24030;SDS011;12240;51.142;22.486;2023-05-10T00:35:58;43.45;;;8.85;;
24030;SDS011;12240;51.142;22.486;2023-05-10T00:38:26;27.52;;;5.97;;
24030;SDS011;12240;51.142;22.486;2023-05-10T00:40:54;29.30;;;6.43;;
24030;SDS011;12240;51.142;22.486;2023-05-10T00:43:28;27.92;;;6.03;;
24030;SDS011;12240;51.142;22.486;2023-05-10T00:45:57;30.83;;;6.40;;
24030;SDS011;12240;51.142;22.486;2023-05-10T00:48:25;33.55;;;7.00;;
24030;SDS011;12240;51.142;22.486;2023-05-10T00:50:53;32.92;;;6.60;;
24030;SDS011;12240;51.142;22.486;2023-05-10T00:53:21;32.72;;;6.13;;
24030;SDS011;12240;51.142;22.486;2023-05-10T00:55:49;29.25;;;5.95;;
24030;SDS011;12240;51.142;22.486;2023-05-10T00:58:18;37.65;;;7.18;;
24030;SDS011;12240;51.142;22.486;2023-05-10T01:00:46;33.40;;;6.55;;
24030;SDS011;12240;51.142;22.486;2023-05-10T01:03:16;34.47;;;7.70;;
24030;SDS011;12240;51.142;22.486;2023-05-10T01:05:44;30.23;;;6.40;;
24030;SDS011;12240;51.142;22.486;2023-05-10T01:08:12;33.33;;;6.90;;
24030;SDS011;12240;51.142;22.486;2023-05-10T01:10:41;36.22;;;7.38;;
24030;SDS011;12240;51.142;22.486;2023-05-10T01:13:11;35.97;;;7.15;;
24030;SDS011;12240;51.142;22.486;2023-05-10T01:15:40;34.75;;;7.13;;
24030;SDS011;12240;51.142;22.486;2023-05-10T01:18:08;39.20;;;7.32;;
24030;SDS011;12240;51.142;22.486;2023-05-10T01:20:41;39.05;;;6.90;;
24030;SDS011;12240;51.142;22.486;2023-05-10T01:28:57;29.90;;;6.13;;
24030;SDS011;12240;51.142;22.486;2023-05-10T01:34:27;37.25;;;7.00;;
24030;SDS011;12240;51.142;22.486;2023-05-10T01:37:29;44.58;;;7.40;;
24030;SDS011;12240;51.142;22.486;2023-05-10T01:40:17;36.10;;;6.97;;
24030;SDS011;12240;51.142;22.486;2023-05-10T01:42:59;66.68;;;8.75;;
24030;SDS011;12240;51.142;22.486;2023-05-10T01:48:11;45.78;;;7.93;;
24030;SDS011;12240;51.142;22.486;2023-05-10T01:50:44;37.60;;;6.85;;
24030;SDS011;12240;51.142;22.486;2023-05-10T01:53:13;38.45;;;6.93;;
24030;SDS011;12240;51.142;22.486;2023-05-10T01:55:48;33.45;;;6.65;;
24030;SDS011;12240;51.142;22.486;2023-05-10T01:58:25;34.83;;;6.82;;
24030;SDS011;12240;51.142;22.486;2023-05-10T02:01:00;44.92;;;8.38;;
24030;SDS011;12240;51.142;22.486;2023-05-10T02:05:59;45.28;;;7.90;;
24030;SDS011;12240;51.142;22.486;2023-05-10T02:08:28;35.30;;;6.50;;
24030;SDS011;12240;51.142;22.486;2023-05-10T02:10:57;38.53;;;7.03;;
24030;SDS011;12240;51.142;22.486;2023-05-10T02:13:27;39.50;;;6.75;;
24030;SDS011;12240;51.142;22.486;2023-05-10T02:15:56;46.13;;;7.90;;
24030;SDS011;12240;51.142;22.486;2023-05-10T02:18:26;40.35;;;7.35;;
24030;SDS011;12240;51.142;22.486;2023-05-10T02:20:55;32.65;;;6.65;;
24030;SDS011;12240;51.142;22.486;2023-05-10T02:23:24;37.97;;;6.93;;
24030;SDS011;12240;51.142;22.486;2023-05-10T02:25:56;34.78;;;6.68;;
24030;SDS011;12240;51.142;22.486;2023-05-10T02:30:55;33.15;;;6.45;;
24030;SDS011;12240;51.142;22.486;2023-05-10T02:33:24;42.28;;;6.90;;
24030;SDS011;12240;51.142;22.486;2023-05-10T02:35:54;54.28;;;8.48;;
24030;SDS011;12240;51.142;22.486;2023-05-10T02:38:23;65.97;;;8.90;;
24030;SDS011;12240;51.142;22.486;2023-05-10T02:40:53;48.85;;;8.55;;
24030;SDS011;12240;51.142;22.486;2023-05-10T02:43:23;55.20;;;8.37;;
24030;SDS011;12240;51.142;22.486;2023-05-10T02:45:52;46.65;;;7.15;;
24030;SDS011;12240;51.142;22.486;2023-05-10T02:48:20;43.13;;;6.90;;
24030;SDS011;12240;51.142;22.486;2023-05-10T02:50:49;47.63;;;8.05;;
24030;SDS011;12240;51.142;22.486;2023-05-10T02:53:20;46.30;;;7.80;;
24030;SDS011;12240;51.142;22.486;2023-05-10T02:55:57;65.82;;;8.70;;
24030;SDS011;12240;51.142;22.486;2023-05-10T02:58:34;46.47;;;7.30;;
24030;SDS011;12240;51.142;22.486;2023-05-10T03:01:03;69.95;;;10.10;;
24030;SDS011;12240;51.142;22.486;2023-05-10T03:03:31;37.05;;;6.03;;
24030;SDS011;12240;51.142;22.486;2023-05-10T03:05:59;53.95;;;7.85;;
24030;SDS011;12240;51.142;22.486;2023-05-10T03:08:27;65.10;;;7.72;;
24030;SDS011;12240;51.142;22.486;2023-05-10T03:11:23;47.85;;;8.27;;
24030;SDS011;12240;51.142;22.486;2023-05-10T03:17:25;43.00;;;7.60;;
24030;SDS011;12240;51.142;22.486;2023-05-10T03:20:35;37.53;;;7.20;;
24030;SDS011;12240;51.142;22.486;2023-05-10T03:25:52;35.83;;;6.63;;
24030;SDS011;12240;51.142;22.486;2023-05-10T03:28:20;42.97;;;8.23;;
24030;SDS011;12240;51.142;22.486;2023-05-10T03:30:52;32.60;;;6.18;;
24030;SDS011;12240;51.142;22.486;2023-05-10T03:33:21;42.47;;;7.75;;
24030;SDS011;12240;51.142;22.486;2023-05-10T03:35:50;38.40;;;7.15;;
24030;SDS011;12240;51.142;22.486;2023-05-10T03:38:18;43.05;;;7.32;;
24030;SDS011;12240;51.142;22.486;2023-05-10T03:40:46;41.38;;;7.40;;
24030;SDS011;12240;51.142;22.486;2023-05-10T03:43:14;32.00;;;5.97;;
24030;SDS011;12240;51.142;22.486;2023-05-10T03:45:42;39.72;;;7.53;;
24030;SDS011;12240;51.142;22.486;2023-05-10T03:48:10;49.20;;;8.45;;
24030;SDS011;12240;51.142;22.486;2023-05-10T03:50:41;40.35;;;7.43;;
24030;SDS011;12240;51.142;22.486;2023-05-10T03:53:10;41.47;;;7.53;;
24030;SDS011;12240;51.142;22.486;2023-05-10T03:55:39;45.22;;;7.13;;
24030;SDS011;12240;51.142;22.486;2023-05-10T03:58:10;42.47;;;7.65;;
24030;SDS011;12240;51.142;22.486;2023-05-10T04:00:39;29.70;;;5.60;;
24030;SDS011;12240;51.142;22.486;2023-05-10T04:03:13;31.08;;;6.13;;
24030;SDS011;12240;51.142;22.486;2023-05-10T04:05:41;36.28;;;7.20;;
24030;SDS011;12240;51.142;22.486;2023-05-10T04:08:09;43.10;;;8.13;;
24030;SDS011;12240;51.142;22.486;2023-05-10T04:10:37;36.20;;;7.05;;
24030;SDS011;12240;51.142;22.486;2023-05-10T04:13:06;42.17;;;7.97;;
24030;SDS011;12240;51.142;22.486;2023-05-10T04:15:35;37.58;;;6.78;;
24030;SDS011;12240;51.142;22.486;2023-05-10T04:18:03;34.75;;;6.70;;
24030;SDS011;12240;51.142;22.486;2023-05-10T04:20:35;32.25;;;7.00;;
24030;SDS011;12240;51.142;22.486;2023-05-10T04:23:03;33.78;;;6.60;;
24030;SDS011;12240;51.142;22.486;2023-05-10T04:25:33;28.63;;;6.47;;
24030;SDS011;12240;51.142;22.486;2023-05-10T04:28:02;37.90;;;7.95;;
24030;SDS011;12240;51.142;22.486;2023-05-10T04:30:31;28.60;;;5.75;;
24030;SDS011;12240;51.142;22.486;2023-05-10T04:33:00;29.20;;;7.57;;
24030;SDS011;12240;51.142;22.486;2023-05-10T04:35:31;21.92;;;6.28;;
24030;SDS011;12240;51.142;22.486;2023-05-10T04:37:59;22.05;;;6.97;;
24030;SDS011;12240;51.142;22.486;2023-05-10T04:40:27;14.63;;;6.22;;
24030;SDS011;12240;51.142;22.486;2023-05-10T04:42:55;14.00;;;5.68;;
24030;SDS011;12240;51.142;22.486;2023-05-10T04:45:23;10.20;;;5.70;;
24030;SDS011;12240;51.142;22.486;2023-05-10T04:47:51;11.23;;;5.95;;
24030;SDS011;12240;51.142;22.486;2023-05-10T04:50:19;14.00;;;5.28;;
24030;SDS011;12240;51.142;22.486;2023-05-10T04:52:47;9.15;;;4.72;;
24030;SDS011;12240;51.142;22.486;2023-05-10T04:55:16;7.25;;;4.68;;
24030;SDS011;12240;51.142;22.486;2023-05-10T04:57:44;7.93;;;3.65;;
24030;SDS011;12240;51.142;22.486;2023-05-10T05:00:12;9.27;;;4.13;;
24030;SDS011;12240;51.142;22.486;2023-05-10T05:02:44;6.63;;;4.05;;
24030;SDS011;12240;51.142;22.486;2023-05-10T05:05:13;7.30;;;3.75;;
24030;SDS011;12240;51.142;22.486;2023-05-10T05:07:41;7.00;;;3.25;;
24030;SDS011;12240;51.142;22.486;2023-05-10T05:10:09;6.50;;;3.75;;
24030;SDS011;12240;51.142;22.486;2023-05-10T05:12:37;7.70;;;3.63;;
24030;SDS011;12240;51.142;22.486;2023-05-10T05:15:06;8.77;;;3.95;;
24030;SDS011;12240;51.142;22.486;2023-05-10T05:20:56;5.63;;;2.95;;
24030;SDS011;12240;51.142;22.486;2023-05-10T05:23:25;9.15;;;2.95;;
24030;SDS011;12240;51.142;22.486;2023-05-10T05:25:53;7.13;;;3.10;;
24030;SDS011;12240;51.142;22.486;2023-05-10T05:28:21;6.97;;;2.78;;
24030;SDS011;12240;51.142;22.486;2023-05-10T05:30:50;5.22;;;2.50;;
24030;SDS011;12240;51.142;22.486;2023-05-10T05:33:19;8.48;;;2.90;;
24030;SDS011;12240;51.142;22.486;2023-05-10T05:35:47;7.03;;;2.72;;
24030;SDS011;12240;51.142;22.486;2023-05-10T05:38:18;6.65;;;2.55;;
24030;SDS011;12240;51.142;22.486;2023-05-10T05:40:46;6.50;;;2.65;;
24030;SDS011;12240;51.142;22.486;2023-05-10T05:43:14;6.70;;;2.50;;
24030;SDS011;12240;51.142;22.486;2023-05-10T05:45:43;3.72;;;2.28;;
24030;SDS011;12240;51.142;22.486;2023-05-10T05:48:11;6.32;;;3.08;;
24030;SDS011;12240;51.142;22.486;2023-05-10T05:50:40;4.90;;;2.53;;
24030;SDS011;12240;51.142;22.486;2023-05-10T05:53:08;7.90;;;2.58;;
24030;SDS011;12240;51.142;22.486;2023-05-10T05:55:36;8.88;;;3.00;;
24030;SDS011;12240;51.142;22.486;2023-05-10T05:58:05;6.82;;;3.00;;
24030;SDS011;12240;51.142;22.486;2023-05-10T06:00:34;10.25;;;2.83;;
24030;SDS011;12240;51.142;22.486;2023-05-10T06:03:02;8.20;;;2.42;;
24030;SDS011;12240;51.142;22.486;2023-05-10T06:05:31;4.03;;;2.38;;
24030;SDS011;12240;51.142;22.486;2023-05-10T06:07:59;5.40;;;2.42;;
24030;SDS011;12240;51.142;22.486;2023-05-10T06:10:28;7.63;;;2.70;;
24030;SDS011;12240;51.142;22.486;2023-05-10T06:12:56;8.90;;;2.65;;
24030;SDS011;12240;51.142;22.486;2023-05-10T06:15:24;6.88;;;2.40;;
24030;SDS011;12240;51.142;22.486;2023-05-10T06:17:53;5.97;;;2.50;;
24030;SDS011;12240;51.142;22.486;2023-05-10T06:20:21;4.50;;;2.15;;
24030;SDS011;12240;51.142;22.486;2023-05-10T06:22:51;6.93;;;3.00;;
24030;SDS011;12240;51.142;22.486;2023-05-10T06:25:19;4.75;;;2.33;;
24030;SDS011;12240;51.142;22.486;2023-05-10T06:27:47;9.68;;;2.45;;
24030;SDS011;12240;51.142;22.486;2023-05-10T06:30:20;5.00;;;2.72;;
24030;SDS011;12240;51.142;22.486;2023-05-10T06:32:50;6.18;;;2.75;;
24030;SDS011;12240;51.142;22.486;2023-05-10T06:35:19;6.93;;;2.30;;
24030;SDS011;12240;51.142;22.486;2023-05-10T06:37:47;7.93;;;2.63;;
24030;SDS011;12240;51.142;22.486;2023-05-10T06:40:15;6.63;;;3.00;;
24030;SDS011;12240;51.142;22.486;2023-05-10T06:42:44;4.18;;;2.30;;
24030;SDS011;12240;51.142;22.486;2023-05-10T06:45:14;4.80;;;2.55;;
24030;SDS011;12240;51.142;22.486;2023-05-10T06:47:43;5.65;;;2.45;;
24030;SDS011;12240;51.142;22.486;2023-05-10T06:50:11;6.75;;;2.10;;
24030;SDS011;12240;51.142;22.486;2023-05-10T06:52:40;6.88;;;2.40;;
24030;SDS011;12240;51.142;22.486;2023-05-10T06:55:08;6.93;;;2.42;;
24030;SDS011;12240;51.142;22.486;2023-05-10T06:57:37;4.88;;;2.00;;
24030;SDS011;12240;51.142;22.486;2023-05-10T07:00:05;4.65;;;2.30;;
24030;SDS011;12240;51.142;22.486;2023-05-10T07:02:34;6.07;;;2.58;;
24030;SDS011;12240;51.142;22.486;2023-05-10T07:05:02;7.50;;;2.65;;
24030;SDS011;12240;51.142;22.486;2023-05-10T07:07:31;4.35;;;2.33;;
24030;SDS011;12240;51.142;22.486;2023-05-10T07:09:59;9.18;;;2.90;;
24030;SDS011;12240;51.142;22.486;2023-05-10T07:12:28;7.15;;;1.85;;
24030;SDS011;12240;51.142;22.486;2023-05-10T07:14:56;9.55;;;2.75;;
24030;SDS011;12240;51.142;22.486;2023-05-10T07:17:24;3.95;;;2.38;;
24030;SDS011;12240;51.142;22.486;2023-05-10T07:19:53;5.72;;;2.83;;
24030;SDS011;12240;51.142;22.486;2023-05-10T07:22:21;7.90;;;2.53;;
24030;SDS011;12240;51.142;22.486;2023-05-10T07:24:49;4.45;;;2.55;;
24030;SDS011;12240;51.142;22.486;2023-05-10T07:27:17;3.25;;;1.80;;
24030;SDS011;12240;51.142;22.486;2023-05-10T07:29:45;8.20;;;2.45;;
24030;SDS011;12240;51.142;22.486;2023-05-10T07:32:13;4.40;;;2.15;;
24030;SDS011;12240;51.142;22.486;2023-05-10T07:34:42;4.90;;;2.33;;
24030;SDS011;12240;51.142;22.486;2023-05-10T07:37:10;12.38;;;3.53;;
24030;SDS011;12240;51.142;22.486;2023-05-10T07:39:38;6.88;;;2.83;;
24030;SDS011;12240;51.142;22.486;2023-05-10T07:42:06;5.53;;;2.42;;
24030;SDS011;12240;51.142;22.486;2023-05-10T07:44:35;6.05;;;2.53;;
24030;SDS011;12240;51.142;22.486;2023-05-10T07:47:03;3.33;;;2.05;;
24030;SDS011;12240;51.142;22.486;2023-05-10T07:49:31;3.90;;;1.75;;
24030;SDS011;12240;51.142;22.486;2023-05-10T07:51:59;3.53;;;2.55;;
24030;SDS011;12240;51.142;22.486;2023-05-10T07:54:27;3.33;;;2.25;;
24030;SDS011;12240;51.142;22.486;2023-05-10T07:56:56;3.95;;;2.92;;
24030;SDS011;12240;51.142;22.486;2023-05-10T07:59:24;6.20;;;3.33;;
24030;SDS011;12240;51.142;22.486;2023-05-10T08:01:52;4.53;;;2.75;;
24030;SDS011;12240;51.142;22.486;2023-05-10T08:04:21;8.13;;;2.85;;
24030;SDS011;12240;51.142;22.486;2023-05-10T08:06:49;9.43;;;3.40;;
24030;SDS011;12240;51.142;22.486;2023-05-10T08:09:17;7.95;;;2.92;;
24030;SDS011;12240;51.142;22.486;2023-05-10T08:11:51;7.28;;;2.67;;
24030;SDS011;12240;51.142;22.486;2023-05-10T08:14:19;7.10;;;3.22;;
24030;SDS011;12240;51.142;22.486;2023-05-10T08:16:47;3.33;;;2.58;;
24030;SDS011;12240;51.142;22.486;2023-05-10T08:19:16;10.85;;;3.30;;
24030;SDS011;12240;51.142;22.486;2023-05-10T08:24:15;8.40;;;3.92;;
24030;SDS011;12240;51.142;22.486;2023-05-10T08:26:43;8.13;;;3.33;;
24030;SDS011;12240;51.142;22.486;2023-05-10T08:29:11;8.35;;;4.85;;
24030;SDS011;12240;51.142;22.486;2023-05-10T08:31:40;8.20;;;4.35;;
24030;SDS011;12240;51.142;22.486;2023-05-10T08:34:09;7.57;;;4.30;;
24030;SDS011;12240;51.142;22.486;2023-05-10T08:36:37;7.75;;;4.07;;
24030;SDS011;12240;51.142;22.486;2023-05-10T08:39:05;15.98;;;5.72;;
24030;SDS011;12240;51.142;22.486;2023-05-10T08:41:49;9.85;;;3.72;;
24030;SDS011;12240;51.142;22.486;2023-05-10T08:44:21;9.18;;;3.65;;
24030;SDS011;12240;51.142;22.486;2023-05-10T08:46:49;8.15;;;3.83;;
24030;SDS011;12240;51.142;22.486;2023-05-10T08:49:20;8.82;;;4.10;;
24030;SDS011;12240;51.142;22.486;2023-05-10T08:51:51;7.30;;;3.55;;
24030;SDS011;12240;51.142;22.486;2023-05-10T08:54:23;13.90;;;4.93;;
24030;SDS011;12240;51.142;22.486;2023-05-10T08:56:52;8.73;;;4.05;;
24030;SDS011;12240;51.142;22.486;2023-05-10T08:59:20;13.93;;;4.70;;
24030;SDS011;12240;51.142;22.486;2023-05-10T09:01:49;18.27;;;4.95;;
24030;SDS011;12240;51.142;22.486;2023-05-10T09:04:20;17.08;;;4.68;;
24030;SDS011;12240;51.142;22.486;2023-05-10T09:06:48;14.98;;;4.95;;
24030;SDS011;12240;51.142;22.486;2023-05-10T09:09:17;13.10;;;5.00;;
24030;SDS011;12240;51.142;22.486;2023-05-10T09:11:47;14.73;;;4.75;;
24030;SDS011;12240;51.142;22.486;2023-05-10T09:14:15;13.18;;;4.47;;
24030;SDS011;12240;51.142;22.486;2023-05-10T09:16:44;10.05;;;4.10;;
24030;SDS011;12240;51.142;22.486;2023-05-10T09:19:12;11.48;;;4.68;;
24030;SDS011;12240;51.142;22.486;2023-05-10T09:21:40;12.05;;;4.88;;
24030;SDS011;12240;51.142;22.486;2023-05-10T09:24:09;14.18;;;5.43;;
24030;SDS011;12240;51.142;22.486;2023-05-10T09:26:45;15.45;;;6.05;;
24030;SDS011;12240;51.142;22.486;2023-05-10T09:29:18;14.73;;;5.95;;
24030;SDS011;12240;51.142;22.486;2023-05-10T09:31:50;11.27;;;4.63;;
24030;SDS011;12240;51.142;22.486;2023-05-10T09:34:20;7.72;;;3.92;;
24030;SDS011;12240;51.142;22.486;2023-05-10T09:37:01;11.13;;;5.00;;
24030;SDS011;12240;51.142;22.486;2023-05-10T09:39:32;10.80;;;4.22;;
24030;SDS011;12240;51.142;22.486;2023-05-10T09:42:03;15.95;;;6.72;;
24030;SDS011;12240;51.142;22.486;2023-05-10T09:44:37;11.88;;;4.57;;
24030;SDS011;12240;51.142;22.486;2023-05-10T09:47:06;17.83;;;6.32;;
24030;SDS011;12240;51.142;22.486;2023-05-10T09:49:35;11.00;;;4.30;;
24030;SDS011;12240;51.142;22.486;2023-05-10T09:52:04;12.55;;;5.47;;
24030;SDS011;12240;51.142;22.486;2023-05-10T09:57:03;16.85;;;5.18;;
24030;SDS011;12240;51.142;22.486;2023-05-10T09:59:32;14.00;;;4.95;;
24030;SDS011;12240;51.142;22.486;2023-05-10T10:02:02;13.30;;;5.05;;
24030;SDS011;12240;51.142;22.486;2023-05-10T10:04:30;10.15;;;4.22;;
24030;SDS011;12240;51.142;22.486;2023-05-10T10:06:59;15.02;;;5.97;;
24030;SDS011;12240;51.142;22.486;2023-05-10T10:09:30;8.90;;;3.80;;
24030;SDS011;12240;51.142;22.486;2023-05-10T10:11:59;15.80;;;6.75;;
24030;SDS011;12240;51.142;22.486;2023-05-10T10:14:29;17.85;;;4.60;;
24030;SDS011;12240;51.142;22.486;2023-05-10T10:16:58;13.20;;;5.97;;
24030;SDS011;12240;51.142;22.486;2023-05-10T10:19:32;14.30;;;5.38;;
24030;SDS011;12240;51.142;22.486;2023-05-10T10:22:03;18.27;;;7.38;;
24030;SDS011;12240;51.142;22.486;2023-05-10T10:24:32;10.88;;;4.03;;
24030;SDS011;12240;51.142;22.486;2023-05-10T10:27:45;10.65;;;5.28;;
24030;SDS011;12240;51.142;22.486;2023-05-10T10:36:16;8.85;;;4.53;;
24030;SDS011;12240;51.142;22.486;2023-05-10T10:41:34;10.97;;;4.77;;
24030;SDS011;12240;51.142;22.486;2023-05-10T10:52:35;9.27;;;3.70;;
24030;SDS011;12240;51.142;22.486;2023-05-10T10:55:08;11.38;;;5.40;;
24030;SDS011;12240;51.142;22.486;2023-05-10T10:57:54;8.18;;;4.13;;
24030;SDS011;12240;51.142;22.486;2023-05-10T11:00:33;9.85;;;3.92;;
24030;SDS011;12240;51.142;22.486;2023-05-10T11:03:14;9.63;;;5.13;;
24030;SDS011;12240;51.142;22.486;2023-05-10T11:05:46;9.05;;;4.13;;
24030;SDS011;12240;51.142;22.486;2023-05-10T11:08:21;8.07;;;3.60;;
24030;SDS011;12240;51.142;22.486;2023-05-10T11:13:30;13.15;;;4.75;;
24030;SDS011;12240;51.142;22.486;2023-05-10T11:19:02;15.60;;;5.07;;
24030;SDS011;12240;51.142;22.486;2023-05-10T11:21:44;13.00;;;5.47;;
24030;SDS011;12240;51.142;22.486;2023-05-10T11:24:40;15.48;;;5.80;;
24030;SDS011;12240;51.142;22.486;2023-05-10T11:27:25;17.55;;;6.28;;
24030;SDS011;12240;51.142;22.486;2023-05-10T11:29:54;13.85;;;4.47;;
24030;SDS011;12240;51.142;22.486;2023-05-10T11:32:22;15.88;;;5.75;;
24030;SDS011;12240;51.142;22.486;2023-05-10T11:34:51;17.20;;;6.03;;
24030;SDS011;12240;51.142;22.486;2023-05-10T11:37:23;13.52;;;5.53;;
24030;SDS011;12240;51.142;22.486;2023-05-10T11:39:51;11.85;;;4.47;;
24030;SDS011;12240;51.142;22.486;2023-05-10T11:42:22;23.88;;;7.75;;
24030;SDS011;12240;51.142;22.486;2023-05-10T11:44:51;14.45;;;6.15;;
24030;SDS011;12240;51.142;22.486;2023-05-10T11:47:20;11.88;;;4.70;;
24030;SDS011;12240;51.142;22.486;2023-05-10T11:49:50;11.98;;;4.32;;
24030;SDS011;12240;51.142;22.486;2023-05-10T11:52:19;12.48;;;4.40;;
24030;SDS011;12240;51.142;22.486;2023-05-10T11:54:50;17.73;;;4.80;;
24030;SDS011;12240;51.142;22.486;2023-05-10T11:57:20;17.25;;;5.50;;
24030;SDS011;12240;51.142;22.486;2023-05-10T11:59:54;20.00;;;5.85;;
24030;SDS011;12240;51.142;22.486;2023-05-10T12:02:24;20.73;;;6.85;;
24030;SDS011;12240;51.142;22.486;2023-05-10T12:04:53;20.05;;;6.25;;
24030;SDS011;12240;51.142;22.486;2023-05-10T12:07:25;12.27;;;4.38;;
24030;SDS011;12240;51.142;22.486;2023-05-10T12:10:06;28.67;;;7.35;;
24030;SDS011;12240;51.142;22.486;2023-05-10T12:12:45;17.75;;;4.63;;
24030;SDS011;12240;51.142;22.486;2023-05-10T12:15:22;16.02;;;4.85;;
24030;SDS011;12240;51.142;22.486;2023-05-10T12:17:52;14.13;;;4.20;;
24030;SDS011;12240;51.142;22.486;2023-05-10T12:20:21;13.43;;;4.43;;
24030;SDS011;12240;51.142;22.486;2023-05-10T12:25:29;12.52;;;4.18;;
24030;SDS011;12240;51.142;22.486;2023-05-10T12:28:00;24.65;;;7.45;;
24030;SDS011;12240;51.142;22.486;2023-05-10T12:30:33;17.10;;;5.00;;
24030;SDS011;12240;51.142;22.486;2023-05-10T12:33:13;20.20;;;5.97;;
24030;SDS011;12240;51.142;22.486;2023-05-10T12:35:46;12.70;;;4.43;;
24030;SDS011;12240;51.142;22.486;2023-05-10T12:38:27;16.15;;;5.10;;
24030;SDS011;12240;51.142;22.486;2023-05-10T12:41:02;17.05;;;5.55;;
24030;SDS011;12240;51.142;22.486;2023-05-10T12:43:36;18.33;;;5.97;;
24030;SDS011;12240;51.142;22.486;2023-05-10T12:48:41;23.38;;;6.32;;
24030;SDS011;12240;51.142;22.486;2023-05-10T12:51:11;18.95;;;4.60;;
24030;SDS011;12240;51.142;22.486;2023-05-10T12:53:42;16.40;;;4.50;;
24030;SDS011;12240;51.142;22.486;2023-05-10T12:56:16;18.10;;;5.22;;
24030;SDS011;12240;51.142;22.486;2023-05-10T12:58:44;13.85;;;4.07;;
24030;SDS011;12240;51.142;22.486;2023-05-10T13:01:15;16.73;;;5.00;;
24030;SDS011;12240;51.142;22.486;2023-05-10T13:03:43;21.42;;;5.43;;
24030;SDS011;12240;51.142;22.486;2023-05-10T13:06:13;22.83;;;6.13;;
24030;SDS011;12240;51.142;22.486;2023-05-10T13:08:41;13.88;;;4.03;;
24030;SDS011;12240;51.142;22.486;2023-05-10T13:11:09;23.40;;;6.32;;
24030;SDS011;12240;51.142;22.486;2023-05-10T13:13:38;14.75;;;4.35;;
24030;SDS011;12240;51.142;22.486;2023-05-10T13:16:06;21.65;;;5.75;;
24030;SDS011;12240;51.142;22.486;2023-05-10T13:18:34;18.63;;;5.30;;
24030;SDS011;12240;51.142;22.486;2023-05-10T13:21:03;23.60;;;5.88;;
24030;SDS011;12240;51.142;22.486;2023-05-10T13:23:33;15.05;;;4.53;;
24030;SDS011;12240;51.142;22.486;2023-05-10T13:26:01;26.13;;;7.25;;
24030;SDS011;12240;51.142;22.486;2023-05-10T13:28:30;14.80;;;4.55;;
24030;SDS011;12240;51.142;22.486;2023-05-10T13:30:59;30.73;;;7.50;;
24030;SDS011;12240;51.142;22.486;2023-05-10T13:33:27;17.52;;;4.45;;
24030;SDS011;12240;51.142;22.486;2023-05-10T13:35:55;21.60;;;5.60;;
24030;SDS011;12240;51.142;22.486;2023-05-10T13:38:23;22.20;;;5.75;;
24030;SDS011;12240;51.142;22.486;2023-05-10T13:40:51;19.30;;;5.30;;
24030;SDS011;12240;51.142;22.486;2023-05-10T13:43:20;16.58;;;4.97;;
24030;SDS011;12240;51.142;22.486;2023-05-10T13:45:48;18.45;;;4.72;;
24030;SDS011;12240;51.142;22.486;2023-05-10T13:48:16;18.05;;;4.90;;
24030;SDS011;12240;51.142;22.486;2023-05-10T13:50:44;17.25;;;4.70;;
24030;SDS011;12240;51.142;22.486;2023-05-10T13:53:13;16.25;;;5.05;;
24030;SDS011;12240;51.142;22.486;2023-05-10T13:55:41;22.83;;;6.63;;
24030;SDS011;12240;51.142;22.486;2023-05-10T13:58:10;26.70;;;7.35;;
24030;SDS011;12240;51.142;22.486;2023-05-10T14:00:38;19.95;;;5.10;;
24030;SDS011;12240;51.142;22.486;2023-05-10T14:03:06;19.70;;;5.95;;
24030;SDS011;12240;51.142;22.486;2023-05-10T14:05:36;17.42;;;4.38;;
24030;SDS011;12240;51.142;22.486;2023-05-10T14:08:04;22.77;;;5.70;;
24030;SDS011;12240;51.142;22.486;2023-05-10T14:10:32;19.42;;;4.70;;
24030;SDS011;12240;51.142;22.486;2023-05-10T14:13:01;21.30;;;5.65;;
24030;SDS011;12240;51.142;22.486;2023-05-10T14:15:30;18.65;;;4.68;;
24030;SDS011;12240;51.142;22.486;2023-05-10T14:17:58;28.70;;;6.93;;
24030;SDS011;12240;51.142;22.486;2023-05-10T14:20:27;20.73;;;5.25;;
24030;SDS011;12240;51.142;22.486;2023-05-10T14:22:56;22.73;;;5.20;;
24030;SDS011;12240;51.142;22.486;2023-05-10T14:25:24;20.33;;;5.80;;
24030;SDS011;12240;51.142;22.486;2023-05-10T14:27:53;11.90;;;3.95;;
24030;SDS011;12240;51.142;22.486;2023-05-10T14:30:21;15.55;;;4.45;;
24030;SDS011;12240;51.142;22.486;2023-05-10T14:32:50;12.95;;;4.43;;
24030;SDS011;12240;51.142;22.486;2023-05-10T14:35:18;12.85;;;4.22;;
24030;SDS011;12240;51.142;22.486;2023-05-10T14:37:47;13.80;;;4.68;;
24030;SDS011;12240;51.142;22.486;2023-05-10T14:40:15;15.20;;;4.72;;
24030;SDS011;12240;51.142;22.486;2023-05-10T14:42:44;13.95;;;4.50;;
24030;SDS011;12240;51.142;22.486;2023-05-10T14:45:12;27.90;;;7.22;;
24030;SDS011;12240;51.142;22.486;2023-05-10T14:47:41;18.10;;;5.10;;
24030;SDS011;12240;51.142;22.486;2023-05-10T14:50:09;22.15;;;6.13;;
24030;SDS011;12240;51.142;22.486;2023-05-10T14:52:51;21.00;;;5.38;;
24030;SDS011;12240;51.142;22.486;2023-05-10T14:55:19;22.90;;;6.10;;
24030;SDS011;12240;51.142;22.486;2023-05-10T14:57:47;22.73;;;5.60;;
24030;SDS011;12240;51.142;22.486;2023-05-10T15:00:17;25.38;;;6.57;;
24030;SDS011;12240;51.142;22.486;2023-05-10T15:02:47;25.33;;;6.47;;
24030;SDS011;12240;51.142;22.486;2023-05-10T15:05:16;21.00;;;5.55;;
24030;SDS011;12240;51.142;22.486;2023-05-10T15:07:45;20.80;;;5.72;;
24030;SDS011;12240;51.142;22.486;2023-05-10T15:10:13;29.25;;;7.18;;
24030;SDS011;12240;51.142;22.486;2023-05-10T15:12:42;21.73;;;5.88;;
24030;SDS011;12240;51.142;22.486;2023-05-10T15:15:10;23.35;;;6.35;;
24030;SDS011;12240;51.142;22.486;2023-05-10T15:17:39;15.38;;;4.60;;
24030;SDS011;12240;51.142;22.486;2023-05-10T15:20:09;19.75;;;5.97;;
24030;SDS011;12240;51.142;22.486;2023-05-10T15:22:40;14.73;;;4.75;;
24030;SDS011;12240;51.142;22.486;2023-05-10T15:25:08;18.42;;;5.78;;
24030;SDS011;12240;51.142;22.486;2023-05-10T15:27:37;19.60;;;5.20;;
24030;SDS011;12240;51.142;22.486;2023-05-10T15:30:05;21.08;;;6.10;;
24030;SDS011;12240;51.142;22.486;2023-05-10T15:32:34;13.95;;;4.70;;
24030;SDS011;12240;51.142;22.486;2023-05-10T15:35:03;15.52;;;4.72;;
24030;SDS011;12240;51.142;22.486;2023-05-10T15:37:32;11.05;;;3.35;;
24030;SDS011;12240;51.142;22.486;2023-05-10T15:40:01;24.10;;;5.80;;
24030;SDS011;12240;51.142;22.486;2023-05-10T15:45:00;19.48;;;6.03;;